Time;durP1;ratioP1;P1;durP2;ratioP2;P2;SDS_P1;SDS_P2;PMS_P1;PMS_P2;Temp;Humidity;BMP_temperature;BMP_pressure;BME280_temperature;BME280_humidity;BME280_pressure;Samples;Min_cycle;Max_cycle;Signal;HPM_P1;HPM_P2
2023/09/24 00:01:38;;;;;;;1.50;1.45;;;;;;;9.33;100.00;102217.22;5012413;28;20352;-80
2023/09/24 00:04:03;;;;;;;1.60;1.50;;;;;;;9.24;100.00;102205.91;5012612;28;20030;-80
2023/09/24 00:06:29;;;;;;;1.47;1.37;;;;;;;9.33;100.00;102223.28;5013660;28;20041;-80
2023/09/24 00:08:56;;;;;;;1.20;1.10;;;;;;;9.32;100.00;102221.56;5032848;28;20021;-80
2023/09/24 00:11:25;;;;;;;1.40;1.30;;;;;;;9.32;100.00;102224.16;5032161;28;20032;-80
2023/09/24 00:13:50;;;;;;;1.55;1.45;;;;;;;9.32;100.00;102229.31;5031718;28;20108;-80
2023/09/24 00:16:16;;;;;;;1.77;1.67;;;;;;;9.30;100.00;102222.38;5032161;28;20053;-80
2023/09/24 00:18:41;;;;;;;1.53;1.37;;;;;;;9.30;100.00;102217.19;5031434;28;20068;-80
2023/09/24 00:21:06;;;;;;;1.60;1.47;;;;;;;9.32;100.00;102237.09;5031685;28;20372;-80
2023/09/24 00:23:32;;;;;;;1.60;1.50;;;;;;;9.34;100.00;102240.59;5032822;28;20029;-80
2023/09/24 00:25:58;;;;;;;1.65;1.55;;;;;;;9.33;100.00;102233.66;5032581;28;20018;-80
2023/09/24 00:28:26;;;;;;;2.00;1.50;;;;;;;9.36;100.00;102241.44;5031389;28;20455;-80
2023/09/24 00:30:52;;;;;;;1.60;1.50;;;;;;;9.36;100.00;102235.41;5027862;28;20099;-80
2023/09/24 00:33:18;;;;;;;1.50;1.40;;;;;;;9.36;100.00;102235.41;5032411;28;20025;-80
2023/09/24 00:35:44;;;;;;;1.50;1.40;;;;;;;9.33;100.00;102236.25;5031722;28;20390;-80
2023/09/24 00:38:09;;;;;;;1.80;1.70;;;;;;;9.33;100.00;102238.84;5031755;28;20286;-80
2023/09/24 00:40:34;;;;;;;1.77;1.67;;;;;;;9.32;100.00;102238.81;5032276;28;20061;-80
2023/09/24 00:43:00;;;;;;;1.93;1.70;;;;;;;9.34;100.00;102247.47;5031457;28;20359;-80
2023/09/24 00:45:25;;;;;;;1.90;1.80;;;;;;;9.33;100.00;102245.72;5032277;28;20033;-80
2023/09/24 00:47:53;;;;;;;1.80;1.70;;;;;;;9.31;100.00;102235.34;5032386;28;20351;-80
2023/09/24 00:50:20;;;;;;;2.28;1.77;;;;;;;9.29;100.00;102236.19;5043730;28;20024;-80
2023/09/24 00:52:46;;;;;;;1.75;1.65;;;;;;;9.29;100.00;102247.41;5052046;28;20028;-80
2023/09/24 00:55:13;;;;;;;1.67;1.57;;;;;;;9.29;100.00;102252.59;5051187;28;20025;-79
2023/09/24 00:57:40;;;;;;;1.45;1.35;;;;;;;9.30;100.00;102256.94;5052338;28;20489;-80
2023/09/24 01:00:13;;;;;;;1.85;1.60;;;;;;;9.31;100.00;102260.38;5052299;28;20025;-80
2023/09/24 01:02:39;;;;;;;1.60;1.50;;;;;;;9.29;100.00;102257.78;5051357;28;20021;-80
2023/09/24 01:05:05;;;;;;;2.77;1.70;;;;;;;9.25;100.00;102255.97;5051566;28;20023;-80
2023/09/24 01:07:31;;;;;;;1.38;1.27;;;;;;;9.22;100.00;102249.06;5054923;28;20071;-80
2023/09/24 01:09:58;;;;;;;1.45;1.35;;;;;;;9.21;100.00;102246.44;5061871;22;20056;-80
2023/09/24 01:12:26;;;;;;;1.58;1.48;;;;;;;9.22;100.00;102253.38;5055309;28;20111;-80
2023/09/24 01:14:53;;;;;;;1.63;1.52;;;;;;;9.18;100.00;102251.59;5055519;28;20033;-80
2023/09/24 01:17:20;;;;;;;;;;;;;;;9.19;100.00;102253.31;5054868;28;20055;-80
2023/09/24 01:19:46;;;;;;;1.73;1.50;;;;;;;9.17;100.00;102250.72;5047077;28;20321;-80
2023/09/24 01:22:12;;;;;;;1.73;1.40;;;;;;;9.17;100.00;102252.44;5034865;28;20028;-80
2023/09/24 01:24:37;;;;;;;1.70;1.60;;;;;;;9.16;100.00;102250.69;5034436;28;20029;-79
2023/09/24 01:27:03;;;;;;;1.50;1.40;;;;;;;9.11;100.00;102245.44;5035166;28;20037;-80
2023/09/24 01:29:28;;;;;;;2.87;1.70;;;;;;;9.14;100.00;102255.84;5035570;28;20109;-80
2023/09/24 01:31:54;;;;;;;1.40;1.30;;;;;;;9.13;100.00;102256.72;5034274;28;20048;-80
2023/09/24 01:34:19;;;;;;;1.30;1.30;;;;;;;9.13;100.00;102254.13;5036189;28;20057;-80
2023/09/24 01:36:45;;;;;;;1.80;1.70;;;;;;;9.10;100.00;102252.38;5035012;28;20052;-80
2023/09/24 01:39:19;;;;;;;2.13;1.92;;;;;;;9.14;100.00;102250.69;5034050;28;20024;-80
2023/09/24 01:41:45;;;;;;;2.10;2.00;;;;;;;9.01;100.00;102234.09;5035212;28;20057;-80
2023/09/24 01:44:13;;;;;;;2.15;1.80;;;;;;;9.13;100.00;102246.34;5034797;28;20022;-80
2023/09/24 01:46:38;;;;;;;1.90;1.80;;;;;;;9.14;100.00;102252.38;5034984;28;20080;-80
2023/09/24 01:49:04;;;;;;;1.97;1.80;;;;;;;9.08;100.00;102242.81;5034455;28;20018;-80
2023/09/24 01:51:31;;;;;;;1.80;1.70;;;;;;;9.06;100.00;102245.38;5034090;28;20026;-80
2023/09/24 01:53:58;;;;;;;2.10;1.90;;;;;;;9.08;100.00;102246.28;5034877;28;20040;-80
2023/09/24 01:56:23;;;;;;;1.83;1.73;;;;;;;9.05;100.00;102241.06;5034523;28;20083;-80
2023/09/24 01:58:51;;;;;;;1.93;1.70;;;;;;;9.08;100.00;102245.41;5030523;28;20475;-80
2023/09/24 02:01:16;;;;;;;2.05;1.80;;;;;;;8.99;100.00;102234.91;5054529;28;20032;-80
2023/09/24 02:03:46;;;;;;;1.93;1.77;;;;;;;9.01;100.00;102244.44;5054548;28;20021;-80
2023/09/24 02:06:19;;;;;;;2.70;2.00;;;;;;;9.01;100.00;102243.59;5053367;28;20025;-80
2023/09/24 02:08:44;;;;;;;2.10;1.90;;;;;;;8.91;100.00;102227.94;5054273;28;20430;-81
2023/09/24 02:11:10;;;;;;;2.03;1.77;;;;;;;8.91;100.00;102232.22;5054598;28;20060;-80
2023/09/24 02:13:35;;;;;;;2.93;2.20;;;;;;;8.86;100.00;102220.94;5053757;28;20032;-80
2023/09/24 02:16:01;;;;;;;1.93;1.83;;;;;;;8.89;100.00;102231.34;5054167;28;20467;-80
2023/09/24 02:18:32;;;;;;;2.13;1.90;;;;;;;8.98;100.00;102252.19;5053136;28;20045;-80
2023/09/24 02:21:00;;;;;;;2.33;2.13;;;;;;;8.89;100.00;102249.47;5036172;28;20048;-80
2023/09/24 02:23:25;;;;;;;2.13;1.95;;;;;;;8.81;100.00;102239.88;5033704;28;20053;-80
2023/09/24 02:25:51;;;;;;;2.00;1.80;;;;;;;8.84;100.00;102253.72;5034349;28;20026;-80
2023/09/24 02:28:33;;;;;;;2.00;1.90;;;;;;;8.86;100.00;102260.63;5033309;28;20466;-80
2023/09/24 02:31:01;;;;;;;2.22;2.00;;;;;;;8.69;100.00;102251.75;5034154;28;20021;-80
2023/09/24 02:33:27;;;;;;;2.10;1.90;;;;;;;8.75;100.00;102263.09;5033373;28;20406;-80
2023/09/24 02:35:52;;;;;;;1.90;1.80;;;;;;;8.71;100.00;102257.84;5033918;28;20030;-80
2023/09/24 02:38:18;;;;;;;2.57;2.03;;;;;;;8.75;100.00;102272.56;5033902;28;20014;-80
2023/09/24 02:40:46;;;;;;;2.60;2.30;;;;;;;8.76;100.00;102274.28;5033592;28;20026;-80
2023/09/24 02:43:12;;;;;;;2.33;2.13;;;;;;;8.66;100.00;102260.38;5033595;28;20068;-80
2023/09/24 02:45:38;;;;;;;2.25;2.05;;;;;;;8.64;100.00;102249.97;5033810;28;20040;-80
2023/09/24 02:48:06;;;;;;;3.03;2.00;;;;;;;8.71;100.00;102274.22;5032520;28;20029;-80
2023/09/24 02:50:32;;;;;;;2.35;2.00;;;;;;;8.69;100.00;102275.91;5034054;28;20109;-80
2023/09/24 02:52:58;;;;;;;2.37;2.00;;;;;;;8.69;100.00;102272.47;5033770;28;20501;-80
2023/09/24 02:55:26;;;;;;;1.98;1.88;;;;;;;8.65;100.00;102269.81;5032755;28;20033;-80
2023/09/24 02:57:51;;;;;;;2.13;1.92;;;;;;;8.58;100.00;102260.25;5051825;28;20036;-79
2023/09/24 03:00:27;;;;;;;2.37;2.00;;;;;;;8.59;100.00;102274.03;5053328;28;20033;-80
2023/09/24 03:02:55;;;;;;;2.45;1.98;;;;;;;8.58;100.00;102273.19;5052952;28;20355;-80
2023/09/24 03:05:24;;;;;;;2.00;1.90;;;;;;;8.59;100.00;102276.63;5053303;28;20476;-80
2023/09/24 03:07:50;;;;;;;2.33;2.10;;;;;;;8.56;100.00;102268.78;5053687;28;20035;-80
2023/09/24 03:10:16;;;;;;;2.53;2.20;;;;;;;8.55;100.00;102280.03;5051867;28;20442;-80
2023/09/24 03:12:42;;;;;;;2.00;1.80;;;;;;;8.53;100.00;102279.13;5053293;28;20111;-80
2023/09/24 03:15:10;;;;;;;2.30;2.08;;;;;;;8.47;100.00;102272.97;5052967;28;20588;-80
2023/09/24 03:17:36;;;;;;;2.05;1.85;;;;;;;8.50;100.00;102282.50;5052478;28;20104;-80
2023/09/24 03:20:14;;;;;;;2.08;1.90;;;;;;;8.46;100.00;102284.16;5043356;28;20033;-80
2023/09/24 03:22:48;;;;;;;2.20;2.00;;;;;;;8.46;100.00;102286.72;5032735;28;20466;-80
2023/09/24 03:25:27;;;;;;;3.35;2.22;;;;;;;8.45;100.00;102282.41;5032815;28;20030;-80
2023/09/24 03:27:57;;;;;;;2.30;2.10;;;;;;;8.45;100.00;102284.13;5032750;28;20022;-80
2023/09/24 03:30:24;;;;;;;2.25;2.05;;;;;;;8.44;100.00;102292.72;5032025;28;20022;-80
2023/09/24 03:32:51;;;;;;;1.92;1.80;;;;;;;8.38;100.00;102297.81;5033075;28;20087;-80
2023/09/24 03:35:19;;;;;;;2.42;2.00;;;;;;;8.36;100.00;102295.19;5032640;28;20040;-80
2023/09/24 03:37:45;;;;;;;1.83;1.73;;;;;;;8.40;100.00;102301.28;5031767;28;20501;-80
2023/09/24 03:40:16;;;;;;;1.85;1.73;;;;;;;8.38;100.00;102303.00;5032794;28;20033;-80
2023/09/24 03:42:42;;;;;;;2.03;1.92;;;;;;;8.37;100.00;102307.28;5032811;28;20028;-80
2023/09/24 03:45:12;;;;;;;2.07;1.87;;;;;;;8.37;100.00;102307.28;5031466;28;20033;-80
2023/09/24 03:47:41;;;;;;;2.22;2.03;;;;;;;8.34;100.00;102302.03;5029817;28;20029;-80
2023/09/24 03:50:10;;;;;;;2.08;1.90;;;;;;;8.39;100.00;102315.94;5044716;28;20465;-80
2023/09/24 03:52:37;;;;;;;1.95;1.80;;;;;;;8.37;100.00;102311.59;5051962;28;20032;-80
2023/09/24 03:55:02;;;;;;;1.95;1.83;;;;;;;8.37;100.00;102315.03;5052370;28;20470;-80
2023/09/24 03:57:29;;;;;;;2.23;1.80;;;;;;;8.37;100.00;102309.88;5052301;28;20028;-80
2023/09/24 03:59:54;;;;;;;2.70;1.90;;;;;;;8.38;100.00;102308.16;5051875;28;20086;-80
2023/09/24 04:02:21;;;;;;;1.83;1.73;;;;;;;8.25;100.00;102295.00;5052128;28;20025;-80
2023/09/24 04:04:46;;;;;;;1.83;1.70;;;;;;;8.32;100.00;102309.78;5051581;28;20033;-80
2023/09/24 04:07:12;;;;;;;2.15;1.83;;;;;;;8.23;100.00;102303.56;5051384;28;20025;-80
2023/09/24 04:09:37;;;;;;;1.90;1.80;;;;;;;8.29;100.00;102309.72;5052246;28;20559;-79
2023/09/24 04:12:04;;;;;;;2.07;1.90;;;;;;;8.29;100.00;102319.22;5051665;28;20272;-80
2023/09/24 04:14:30;;;;;;;3.03;1.70;;;;;;;8.26;100.00;102317.44;5052241;28;20028;-80
2023/09/24 04:16:56;;;;;;;2.07;1.80;;;;;;;8.26;100.00;102326.91;5052522;28;20436;-80
2023/09/24 04:19:23;;;;;;;2.17;1.92;;;;;;;8.17;100.00;102315.56;5051099;28;20100;-80
2023/09/24 04:21:49;;;;;;;2.22;1.90;;;;;;;8.21;100.00;102319.06;5052088;28;20037;-80
2023/09/24 04:24:14;;;;;;;2.27;1.90;;;;;;;8.17;100.00;102320.72;5052154;28;20024;-80
2023/09/24 04:26:40;;;;;;;2.10;1.60;;;;;;;8.15;100.00;102321.56;5051972;28;20021;-80
2023/09/24 04:29:05;;;;;;;2.03;1.63;;;;;;;8.18;100.00;102337.09;5051872;28;20433;-79
2023/09/24 04:31:31;;;;;;;2.05;1.85;;;;;;;8.17;100.00;102340.53;5052205;28;20381;-80
2023/09/24 04:33:56;;;;;;;1.95;1.73;;;;;;;8.17;100.00;102332.78;5051219;28;20104;-80
2023/09/24 04:36:22;;;;;;;1.90;1.80;;;;;;;8.14;100.00;102330.16;5051907;28;20033;-80
2023/09/24 04:38:47;;;;;;;1.77;1.67;;;;;;;8.10;100.00;102328.34;5052206;28;20017;-80
2023/09/24 04:41:15;;;;;;;1.80;1.70;;;;;;;8.11;100.00;102327.50;5052777;28;20017;-80
2023/09/24 04:43:41;;;;;;;1.98;1.75;;;;;;;8.10;100.00;102331.81;5056150;28;20533;-80
2023/09/24 04:46:07;;;;;;;3.05;2.15;;;;;;;8.09;100.00;102334.34;5055930;28;20037;-80
2023/09/24 04:48:36;;;;;;;2.00;1.90;;;;;;;8.11;100.00;102337.84;5055221;28;20171;-80
2023/09/24 04:51:02;;;;;;;2.10;1.80;;;;;;;8.03;100.00;102327.34;5038090;28;20025;-80
2023/09/24 04:53:28;;;;;;;1.73;1.63;;;;;;;8.08;100.00;102332.59;5036238;28;20029;-80
2023/09/24 04:55:54;;;;;;;1.70;1.60;;;;;;;8.01;100.00;102326.44;5035245;28;20029;-80
2023/09/24 04:58:19;;;;;;;1.75;1.42;;;;;;;7.99;100.00;102325.56;5035364;28;20033;-80
2023/09/24 05:00:45;;;;;;;1.53;1.43;;;;;;;8.01;100.00;102329.91;5035828;28;20021;-80
2023/09/24 05:03:10;;;;;;;1.97;1.83;;;;;;;8.03;100.00;102332.53;5034807;28;20025;-80
2023/09/24 05:05:40;;;;;;;1.80;1.65;;;;;;;8.04;100.00;102332.56;5036020;28;20060;-80
2023/09/24 05:08:06;;;;;;;2.20;1.88;;;;;;;8.06;100.00;102342.94;5035334;28;20458;-80
2023/09/24 05:10:32;;;;;;;2.20;2.00;;;;;;;8.06;100.00;102336.88;5035005;28;20041;-80
2023/09/24 05:12:58;;;;;;;2.10;1.90;;;;;;;8.04;100.00;102337.75;5035460;28;20488;-80
2023/09/24 05:15:23;;;;;;;2.10;1.90;;;;;;;8.06;100.00;102342.03;5034420;28;20108;-80
2023/09/24 05:17:48;;;;;;;2.00;1.90;;;;;;;8.06;100.00;102344.63;5035503;28;20021;-80
2023/09/24 05:20:15;;;;;;;2.27;2.07;;;;;;;8.03;100.00;102341.16;5035525;28;20132;-80
2023/09/24 05:22:41;;;;;;;2.30;2.08;;;;;;;8.02;100.00;102346.28;5034791;28;20021;-80
2023/09/24 05:25:08;;;;;;;2.33;2.10;;;;;;;7.99;100.00;102343.66;5035284;28;20107;-79
2023/09/24 05:27:37;;;;;;;2.20;2.00;;;;;;;8.00;100.00;102350.56;5035391;28;20029;-80
2023/09/24 05:30:04;;;;;;;2.25;2.00;;;;;;;7.98;100.00;102350.53;5034395;28;20032;-80
2023/09/24 05:32:32;;;;;;;2.55;2.25;;;;;;;8.02;100.00;102367.88;5035167;28;20097;-79
2023/09/24 05:34:57;;;;;;;2.22;2.03;;;;;;;8.03;100.00;102371.31;5035168;28;20030;-79
2023/09/24 05:37:22;;;;;;;2.37;2.10;;;;;;;7.99;100.00;102364.34;5034274;28;20026;-79
2023/09/24 05:39:54;;;;;;;2.40;2.20;;;;;;;7.98;100.00;102367.78;5035270;28;20386;-79
2023/09/24 05:42:20;;;;;;;3.40;2.20;;;;;;;8.03;100.00;102368.72;5034433;28;20029;-79
2023/09/24 05:44:45;;;;;;;3.10;2.30;;;;;;;8.00;100.00;102377.31;5033821;28;20037;-79
2023/09/24 05:47:11;;;;;;;2.63;2.30;;;;;;;8.04;100.00;102380.81;5034981;28;20124;-80
2023/09/24 05:49:39;;;;;;;2.28;2.03;;;;;;;8.01;100.00;102381.63;5034942;28;20036;-79
2023/09/24 05:52:04;;;;;;;2.47;2.15;;;;;;;8.01;100.00;102389.38;5046504;28;20037;-78
2023/09/24 05:54:30;;;;;;;3.03;2.30;;;;;;;8.07;100.00;102400.69;5054303;28;20097;-78
2023/09/24 05:56:55;;;;;;;2.63;2.30;;;;;;;7.99;100.00;102379.88;5054712;28;20389;-79
2023/09/24 05:59:23;;;;;;;3.60;2.30;;;;;;;8.04;100.00;102386.88;5053468;28;20017;-79
2023/09/24 06:02:40;;;;;;;3.55;2.50;;;;;;;7.93;100.00;102371.97;5054466;28;20017;-79
2023/09/24 06:05:06;;;;;;;2.65;2.00;;;;;;;7.97;100.00;102378.97;5011791;28;20088;-78
2023/09/24 06:07:35;;;;;;;2.30;2.10;;;;;;;8.04;100.00;102375.63;5050667;28;20037;-79
2023/09/24 06:10:04;;;;;;;1.92;1.77;;;;;;;7.96;100.00;102379.78;5054219;28;20103;-79
2023/09/24 06:12:30;;;;;;;2.30;2.10;;;;;;;8.05;100.00;102395.50;5053784;28;20100;-78
2023/09/24 06:14:59;;;;;;;2.05;1.90;;;;;;;8.07;100.00;102396.41;5054592;28;20067;-79
2023/09/24 06:17:24;;;;;;;2.03;1.92;;;;;;;8.11;100.00;102398.19;5018453;28;20037;-79
2023/09/24 06:19:49;;;;;;;1.90;1.80;;;;;;;8.07;100.00;102383.47;5046117;28;20029;-79
2023/09/24 06:22:14;;;;;;;2.30;1.60;;;;;;;8.15;100.00;102393.97;5033956;28;20032;-79
2023/09/24 06:24:40;;;;;;;2.00;1.60;;;;;;;8.18;100.00;102396.59;5035599;28;20488;-79
2023/09/24 06:27:05;;;;;;;1.60;1.50;;;;;;;8.18;100.00;102394.91;5053346;28;20078;-78
2023/09/24 06:29:34;;;;;;;1.80;1.70;;;;;;;8.22;100.00;102400.13;5054467;28;20051;-78
2023/09/24 06:31:59;;;;;;;1.38;1.27;;;;;;;8.26;100.00;102404.50;5054551;28;20167;-79
2023/09/24 06:34:26;;;;;;;1.60;1.50;;;;;;;8.43;100.00;102416.06;5053697;28;20112;-79
2023/09/24 06:36:51;;;;;;;1.48;1.38;;;;;;;8.85;100.00;102415.97;5054380;28;20014;-78
2023/09/24 06:39:16;;;;;;;2.00;1.80;;;;;;;9.46;100.00;102407.44;5053727;28;20078;-79
2023/09/24 06:41:42;;;;;;;1.37;1.27;;;;;;;10.14;100.00;102418.66;5053755;28;20074;-79
2023/09/24 06:44:10;;;;;;;1.50;1.40;;;;;;;10.50;100.00;102422.56;5054151;28;20037;-79
2023/09/24 06:46:36;;;;;;;1.33;1.23;;;;;;;10.89;100.00;102426.41;5053788;28;20493;-79
2023/09/24 06:49:02;;;;;;;1.40;1.30;;;;;;;12.09;100.00;102420.25;5052606;28;20029;-79
2023/09/24 06:51:36;;;;;;;1.03;1.03;;;;;;;13.27;100.00;102421.25;5033338;28;20470;-79
2023/09/24 06:54:20;;;;;;;0.82;0.82;;;;;;;13.80;99.24;102412.47;5033275;28;20030;-79
2023/09/24 06:56:45;;;;;;;1.83;1.33;;;;;;;14.25;98.55;102428.78;5033905;28;20032;-80
2023/09/24 07:01:46;;;;;;;1.38;1.20;;;;;;;14.07;94.92;102424.53;5213268;22;20416;-80
2023/09/24 07:04:11;;;;;;;0.97;0.97;;;;;;;13.55;93.34;102431.69;5072775;28;20078;-80
2023/09/24 07:06:37;;;;;;;2.40;1.20;;;;;;;12.99;93.53;102438.63;5074050;28;20031;-80
2023/09/24 07:09:08;;;;;;;1.47;1.33;;;;;;;12.43;94.74;102432.50;5072794;28;20028;-80
2023/09/24 07:11:42;;;;;;;1.38;1.27;;;;;;;12.14;95.68;102439.34;5069683;28;20037;-80
2023/09/24 07:14:19;;;;;;;2.22;1.60;;;;;;;11.84;96.36;102434.84;5072874;28;20020;-80
2023/09/24 07:17:28;;;;;;;2.58;2.20;;;;;;;11.57;96.83;102434.72;5072390;28;20087;-80
2023/09/24 07:20:12;;;;;;;2.95;2.28;;;;;;;11.35;97.93;102438.03;5072317;28;20052;-81
2023/09/24 07:23:11;;;;;;;3.38;2.08;;;;;;;11.21;98.51;102443.09;5072377;28;20476;-80
2023/09/24 07:25:40;;;;;;;3.10;2.30;;;;;;;11.07;100.00;102448.19;5073123;28;20024;-80
2023/09/24 07:28:05;;;;;;;4.68;2.60;;;;;;;10.86;100.00;102430.72;5072593;28;20024;-80
2023/09/24 07:31:11;;;;;;;3.83;2.30;;;;;;;10.94;100.00;102452.44;5071993;28;20021;-80
2023/09/24 07:33:36;;;;;;;;;;;;;;;10.90;100.00;102455.84;5073587;28;20444;-80
2023/09/24 07:36:01;;;;;;;4.27;2.70;;;;;;;10.88;100.00;102458.44;5072077;28;19999;-80
2023/09/24 07:38:27;;;;;;;3.23;2.30;;;;;;;10.89;100.00;102457.59;5072510;28;20028;-81
2023/09/24 07:40:52;;;;;;;4.03;2.60;;;;;;;10.91;100.00;102455.00;5071924;28;20056;-79
2023/09/24 07:43:18;;;;;;;4.10;2.40;;;;;;;10.97;100.00;102455.91;5064130;28;20474;-80
2023/09/24 07:45:43;;;;;;;3.70;2.37;;;;;;;11.03;100.00;102460.28;5066265;28;20112;-80
2023/09/24 07:48:13;;;;;;;3.93;2.27;;;;;;;11.10;100.00;102464.69;5059697;28;20449;-80
2023/09/24 07:50:39;;;;;;;3.58;2.30;;;;;;;11.13;100.00;102461.25;5071920;28;20534;-80
2023/09/24 07:53:05;;;;;;;3.43;2.40;;;;;;;11.20;100.00;102460.44;5072089;28;20024;-80
2023/09/24 07:55:31;;;;;;;5.25;2.80;;;;;;;11.32;100.00;102466.59;5072670;28;20354;-80
2023/09/24 07:57:56;;;;;;;4.87;2.63;;;;;;;11.38;100.00;102469.22;5072103;28;20032;-80
2023/09/24 08:00:22;;;;;;;4.60;2.53;;;;;;;11.50;100.00;102469.31;5067533;28;20040;-80
2023/09/24 08:02:47;;;;;;;3.13;2.30;;;;;;;11.53;100.00;102464.16;5072149;28;20021;-80
2023/09/24 08:05:13;;;;;;;4.20;2.73;;;;;;;11.67;100.00;102465.97;5071211;28;20047;-80
2023/09/24 08:07:39;;;;;;;6.25;2.75;;;;;;;11.78;100.00;102463.41;5071434;28;20469;-80
2023/09/24 08:10:05;;;;;;;5.47;3.00;;;;;;;11.85;100.00;102460.88;5071564;28;20036;-80
2023/09/24 08:12:30;;;;;;;3.37;2.43;;;;;;;11.96;100.00;102458.31;5070785;28;20028;-80
2023/09/24 08:14:56;;;;;;;5.70;2.80;;;;;;;12.07;100.00;102466.19;5060763;28;20033;-80
2023/09/24 08:17:21;;;;;;;4.37;2.23;;;;;;;12.12;100.00;102454.09;5055364;28;20043;-80
2023/09/24 08:19:46;;;;;;;3.53;2.37;;;;;;;12.21;100.00;102458.47;5074467;28;20122;-80
2023/09/24 08:22:11;;;;;;;4.43;2.33;;;;;;;12.40;100.00;102471.53;5066851;28;20025;-80
2023/09/24 08:24:37;;;;;;;4.47;2.07;;;;;;;12.46;100.00;102468.94;5055094;28;20478;-80
2023/09/24 08:27:02;;;;;;;3.67;2.10;;;;;;;12.60;100.00;102480.28;5053828;28;20029;-79
2023/09/24 08:29:28;;;;;;;3.20;2.20;;;;;;;12.70;100.00;102470.75;5054842;28;20107;-80
2023/09/24 08:32:17;;;;;;;4.93;2.40;;;;;;;12.80;100.00;102467.31;5054970;28;20032;-80
2023/09/24 08:34:42;;;;;;;4.78;2.45;;;;;;;12.89;98.88;102460.34;5054671;28;20295;-80
2023/09/24 08:37:07;;;;;;;3.73;2.10;;;;;;;13.02;99.92;102459.50;5054691;28;20021;-80
2023/09/24 08:39:33;;;;;;;3.13;2.10;;;;;;;13.18;99.94;102465.59;5054200;28;20021;-80
2023/09/24 08:42:00;;;;;;;2.03;1.87;;;;;;;13.39;100.00;102483.00;5054419;28;20025;-80
2023/09/24 08:44:27;;;;;;;3.05;1.90;;;;;;;13.52;99.68;102473.41;5054493;28;20044;-80
2023/09/24 08:46:56;;;;;;;5.38;2.13;;;;;;;13.64;95.06;102476.88;5054095;28;20375;-80
2023/09/24 08:49:21;;;;;;;3.45;1.75;;;;;;;13.79;97.47;102478.56;5054259;28;20481;-80
2023/09/24 08:51:54;;;;;;;4.07;2.30;;;;;;;13.90;97.23;102476.78;5054600;28;20037;-80
2023/09/24 08:54:19;;;;;;;2.63;2.00;;;;;;;14.04;96.31;102477.63;5053245;28;20091;-80
2023/09/24 08:56:45;;;;;;;3.20;1.90;;;;;;;14.22;94.12;102478.41;5054686;28;20119;-80
2023/09/24 08:59:10;;;;;;;2.43;1.90;;;;;;;14.38;96.70;102480.97;5054548;28;20024;-80
2023/09/24 09:01:36;;;;;;;3.57;2.03;;;;;;;14.49;94.03;102481.78;5094815;23;1072749;-80
2023/09/24 09:04:01;;;;;;;3.50;1.90;;;;;;;14.64;95.38;102479.06;5056027;28;20039;-80
2023/09/24 09:06:36;;;;;;;3.33;1.73;;;;;;;14.81;93.42;102489.44;5055547;28;20420;-80
2023/09/24 09:09:03;;;;;;;3.15;1.90;;;;;;;14.99;89.81;102490.19;5054919;28;20047;-80
2023/09/24 09:11:38;;;;;;;2.30;1.70;;;;;;;15.12;92.81;102486.63;5055747;28;20024;-80
2023/09/24 09:14:04;;;;;;;6.97;2.00;;;;;;;15.25;90.30;102489.13;5055541;28;20039;-80
2023/09/24 09:16:29;;;;;;;2.57;1.70;;;;;;;15.38;90.92;102479.41;5055018;28;20100;-80
2023/09/24 09:19:02;;;;;;;4.57;2.00;;;;;;;15.52;85.72;102482.78;5055437;28;20441;-80
2023/09/24 09:21:28;;;;;;;3.85;1.92;;;;;;;15.63;89.79;102476.56;5054481;28;20075;-80
2023/09/24 09:23:53;;;;;;;2.73;1.70;;;;;;;15.70;90.36;102466.00;5054842;28;20032;-80
2023/09/24 09:26:25;;;;;;;1.73;1.60;;;;;;;15.84;90.74;102444.03;5054830;28;20040;-80
2023/09/24 09:28:50;;;;;;;2.78;1.70;;;;;;;15.97;86.73;102445.66;5054611;28;20104;-80
2023/09/24 09:31:16;;;;;;;3.80;1.73;;;;;;;16.10;82.15;102450.75;5055129;28;20464;-80
2023/09/24 09:33:43;;;;;;;3.53;1.73;;;;;;;16.18;85.80;102441.00;5055337;28;20019;-80
2023/09/24 09:36:22;;;;;;;1.85;1.50;;;;;;;16.32;81.86;102443.47;5054202;28;20027;-79
2023/09/24 09:38:48;;;;;;;2.15;1.50;;;;;;;16.40;81.02;102440.72;5054696;28;20535;-80
2023/09/24 09:41:17;;;;;;;3.00;1.48;;;;;;;16.45;84.24;102426.66;5054987;28;20033;-80
2023/09/24 09:43:42;;;;;;;3.65;1.70;;;;;;;16.58;84.76;102434.34;5054492;28;20021;-80
2023/09/24 09:46:10;;;;;;;1.77;1.50;;;;;;;16.74;84.95;102433.22;5054114;28;20067;-80
2023/09/24 09:48:37;;;;;;;3.55;1.83;;;;;;;16.84;80.66;102436.56;5054368;28;20436;-80
2023/09/24 09:51:07;;;;;;;2.88;1.70;;;;;;;16.91;79.57;102426.81;5054345;28;20025;-80
2023/09/24 09:53:34;;;;;;;3.25;1.50;;;;;;;16.91;80.67;102411.09;5055207;28;20016;-79
2023/09/24 09:56:05;;;;;;;3.20;1.60;;;;;;;17.11;79.35;102424.75;5054759;28;20033;-81
2023/09/24 09:58:36;;;;;;;2.38;1.45;;;;;;;17.24;79.80;102427.16;5054034;28;20151;-80
2023/09/24 10:01:03;;;;;;;3.05;1.40;;;;;;;17.32;80.51;102419.16;5054488;28;20406;-80
2023/09/24 10:03:32;;;;;;;2.08;1.40;;;;;;;17.44;80.32;102422.44;5054814;28;20083;-80
2023/09/24 10:06:00;;;;;;;2.65;1.50;;;;;;;17.59;79.41;102421.28;5053567;28;20024;-80
2023/09/24 10:08:47;;;;;;;3.40;1.63;;;;;;;17.78;76.24;102422.66;5054481;28;20025;-80
2023/09/24 10:11:32;;;;;;;2.75;1.63;;;;;;;17.80;73.94;102408.59;5053785;28;20025;-80
2023/09/24 10:14:08;;;;;;;3.70;1.83;;;;;;;17.86;76.01;102404.97;5054164;28;20021;-80
2023/09/24 10:16:38;;;;;;;2.00;1.30;;;;;;;17.99;78.04;102401.25;5054727;28;20025;-79
2023/09/24 10:19:08;;;;;;;1.85;1.42;;;;;;;18.11;73.45;102402.72;5053841;28;20021;-80
2023/09/24 10:21:43;;;;;;;2.42;1.42;;;;;;;18.20;76.02;102399.03;5054610;28;20029;-80
2023/09/24 10:24:20;;;;;;;2.13;1.30;;;;;;;18.32;75.32;102403.13;5053474;28;20565;-80
2023/09/24 10:27:04;;;;;;;3.60;1.40;;;;;;;18.43;73.74;102403.75;5053684;28;20028;-80
2023/09/24 10:29:44;;;;;;;1.30;1.10;;;;;;;18.60;74.39;102410.38;5054367;28;20065;-80
2023/09/24 10:32:23;;;;;;;1.45;1.20;;;;;;;18.72;75.78;102396.94;5053037;28;20493;-80
2023/09/24 10:34:54;;;;;;;1.85;1.05;;;;;;;18.81;75.61;102398.44;5054305;28;20203;-80
2023/09/24 10:37:21;;;;;;;1.20;1.10;;;;;;;18.84;73.79;102401.00;5054273;28;20442;-80
2023/09/24 10:39:58;;;;;;;2.30;1.38;;;;;;;18.89;70.35;102393.00;5052826;28;20104;-81
2023/09/24 10:42:28;;;;;;;3.45;1.63;;;;;;;18.86;68.05;102393.09;5053499;28;20110;-81
2023/09/24 10:45:09;;;;;;;3.38;1.50;;;;;;;18.92;64.78;102399.03;5053690;28;20032;-80
2023/09/24 10:48:02;;;;;;;1.80;1.50;;;;;;;18.95;68.06;102392.88;5053283;28;20088;-78
2023/09/24 10:50:27;;;;;;;1.73;1.20;;;;;;;19.02;67.70;102385.69;5030619;28;20114;-79
2023/09/24 10:53:11;;;;;;;1.97;1.40;;;;;;;19.12;65.72;102389.81;5052659;28;20013;-78
2023/09/24 10:55:40;;;;;;;2.17;1.42;;;;;;;19.19;66.83;102380.84;5053790;28;20036;-79
2023/09/24 10:58:14;;;;;;;2.30;1.40;;;;;;;19.24;68.51;102385.97;5053330;28;20470;-79
2023/09/24 11:00:44;;;;;;;1.77;1.48;;;;;;;19.27;67.99;102385.88;5052626;28;20389;-79
2023/09/24 11:03:13;;;;;;;2.83;1.58;;;;;;;19.37;66.63;102384.72;5053306;28;20021;-79
2023/09/24 11:05:41;;;;;;;1.92;1.20;;;;;;;19.43;67.25;102381.06;5053443;28;20017;-79
2023/09/24 11:08:08;;;;;;;1.33;1.17;;;;;;;19.46;65.00;102383.63;5052477;28;20119;-79
2023/09/24 11:10:34;;;;;;;;;;;;;;;19.56;63.90;102384.19;5053628;28;20033;-79
2023/09/24 11:13:04;;;;;;;4.05;1.60;;;;;;;19.63;66.81;102375.22;5053462;28;20343;-79
2023/09/24 11:15:31;;;;;;;1.73;1.50;;;;;;;19.64;61.71;102376.09;5051620;28;20035;-78
2023/09/24 11:17:58;;;;;;;2.22;1.50;;;;;;;19.62;63.68;102373.50;5051522;28;20091;-78
2023/09/24 11:20:25;;;;;;;2.28;1.40;;;;;;;19.64;65.27;102381.34;5052125;28;20112;-77
2023/09/24 11:22:57;;;;;;;1.58;1.23;;;;;;;19.72;65.32;102374.06;5051737;28;20505;-78
2023/09/24 11:25:24;;;;;;;3.55;1.40;;;;;;;19.75;59.16;102371.34;5052824;28;20025;-77
2023/09/24 11:27:50;;;;;;;;;;;;;;;19.85;65.38;102378.06;5053429;28;20029;-78
2023/09/24 11:30:18;;;;;;;;;;;;;;;19.93;64.69;102385.78;5051961;28;19970;-77
2023/09/24 11:32:52;;;;;;;2.42;1.42;;;;;;;19.97;63.83;102374.25;5051578;28;19919;-77